createdAt,value
2022-09-09T00:01:39.021Z,84.32
2022-09-09T00:04:15.759Z,83.84
2022-09-09T00:06:52.007Z,86.41
2022-09-09T00:09:21.665Z,84.37
2022-09-09T00:11:57.945Z,84.14
2022-09-09T00:14:50.386Z,84.64
2022-09-09T00:17:47.267Z,85.01
2022-09-09T00:20:17.912Z,84.00
2022-09-09T00:23:07.587Z,82.42
2022-09-09T00:25:40.267Z,81.83
2022-09-09T00:28:21.885Z,79.40
2022-09-09T00:30:49.691Z,78.66
2022-09-09T00:33:23.249Z,78.66
2022-09-09T00:36:01.519Z,79.11
2022-09-09T00:38:39.423Z,79.16
2022-09-09T00:41:44.799Z,80.74
2022-09-09T00:44:30.769Z,81.50
2022-09-09T00:47:06.129Z,83.06
2022-09-09T00:49:47.556Z,84.45
2022-09-09T00:52:24.346Z,83.80
2022-09-09T00:55:00.928Z,82.97
2022-09-09T00:57:33.846Z,83.38
2022-09-09T01:00:28.207Z,83.00
2022-09-09T01:02:56.885Z,82.77
2022-09-09T01:05:28.648Z,82.40
2022-09-09T01:07:58.399Z,83.74
2022-09-09T01:10:37.005Z,84.21
2022-09-09T01:13:14.157Z,84.82
2022-09-09T01:15:42.680Z,83.86
2022-09-09T01:18:13.557Z,82.92
2022-09-09T01:21:17.102Z,83.33
2022-09-09T01:24:15.063Z,82.75
2022-09-09T01:26:44.374Z,81.32
2022-09-09T01:29:16.376Z,81.66
2022-09-09T01:31:57.422Z,83.25
2022-09-09T01:34:28.261Z,87.48
2022-09-09T01:37:07.804Z,85.12
2022-09-09T01:39:37.029Z,91.79
2022-09-09T01:42:06.389Z,94.65
2022-09-09T01:44:34.245Z,95.54
2022-09-09T01:47:02.166Z,96.91
2022-09-09T01:49:29.570Z,92.25
2022-09-09T01:51:58.213Z,94.84
2022-09-09T01:54:29.179Z,93.83
2022-09-09T01:57:18.366Z,84.94
2022-09-09T02:00:14.657Z,81.44
2022-09-09T02:03:15.939Z,80.99
2022-09-09T02:06:06.825Z,81.67
2022-09-09T02:08:43.625Z,81.99
2022-09-09T02:11:23.319Z,88.98
2022-09-09T02:13:55.512Z,93.07
2022-09-09T02:16:33.969Z,89.86
2022-09-09T02:19:10.244Z,89.87
2022-09-09T02:21:40.935Z,89.54
2022-09-09T02:24:11.405Z,88.12
2022-09-09T02:26:43.550Z,86.30
2022-09-09T02:29:15.812Z,95.25
2022-09-09T02:31:45.561Z,95.06
2022-09-09T02:34:16.612Z,96.16
2022-09-09T02:36:45.184Z,97.06
2022-09-09T02:39:12.696Z,94.18
2022-09-09T02:41:42.724Z,94.39
2022-09-09T02:44:12.533Z,95.30
2022-09-09T02:46:58.443Z,93.64
2022-09-09T02:49:50.963Z,89.45
2022-09-09T02:52:23.488Z,93.87
2022-09-09T02:54:51.516Z,91.01
2022-09-09T02:57:24.562Z,96.93
2022-09-09T02:59:53.760Z,94.90
2022-09-09T03:02:21.541Z,94.57
2022-09-09T03:04:52.771Z,96.38
2022-09-09T03:07:20.979Z,96.38
2022-09-09T03:09:49.138Z,97.47
2022-09-09T03:12:17.344Z,97.45
2022-09-09T03:14:46.475Z,99.06
2022-09-09T03:17:14.198Z,94.81
2022-09-09T03:19:42.835Z,93.36
2022-09-09T03:22:12.238Z,95.63
2022-09-09T03:24:41.286Z,94.92
2022-09-09T03:27:08.655Z,98.84
2022-09-09T03:29:36.693Z,94.36
2022-09-09T03:32:04.728Z,91.19
2022-09-09T03:34:32.395Z,91.29
2022-09-09T03:37:00.187Z,87.05
2022-09-09T03:39:28.448Z,85.48
2022-09-09T03:41:55.804Z,89.42
2022-09-09T03:44:23.284Z,85.92
2022-09-09T03:46:51.039Z,89.07
2022-09-09T03:49:19.043Z,91.17
2022-09-09T03:51:46.889Z,91.47
2022-09-09T03:54:14.792Z,91.81
2022-09-09T03:56:42.795Z,90.47
2022-09-09T03:59:10.957Z,86.22
2022-09-09T04:01:38.626Z,93.61
2022-09-09T04:04:06.381Z,93.82
2022-09-09T04:06:33.850Z,92.09
2022-09-09T04:09:04.298Z,96.78
2022-09-09T04:11:32.218Z,97.50
2022-09-09T04:13:59.819Z,91.37
2022-09-09T04:16:27.308Z,85.49
2022-09-09T04:18:54.995Z,88.16
2022-09-09T04:21:22.414Z,89.56
2022-09-09T04:23:49.924Z,83.52
2022-09-09T04:26:17.815Z,89.41
2022-09-09T04:28:45.639Z,85.09
2022-09-09T04:31:19.542Z,86.01
2022-09-09T04:33:47.702Z,84.47
2022-09-09T04:36:15.072Z,84.95
2022-09-09T04:38:42.970Z,90.07
2022-09-09T04:41:12.119Z,89.12
2022-09-09T04:43:40.415Z,87.58
2022-09-09T04:46:07.970Z,87.92
2022-09-09T04:48:36.249Z,87.27
2022-09-09T04:51:06.778Z,87.61
2022-09-09T04:53:39.061Z,86.17
2022-09-09T04:56:12.745Z,86.11
2022-09-09T04:58:43.961Z,85.61
2022-09-09T05:01:18.596Z,85.83
2022-09-09T05:03:47.029Z,85.44
2022-09-09T05:06:17.725Z,85.43
2022-09-09T05:08:46.074Z,86.71
2022-09-09T05:11:25.253Z,86.74
2022-09-09T05:13:54.528Z,86.92
2022-09-09T05:16:22.466Z,88.00
2022-09-09T05:18:51.605Z,87.34
2022-09-09T05:21:21.657Z,86.88
2022-09-09T05:23:49.173Z,86.10
2022-09-09T05:26:18.884Z,90.11
2022-09-09T05:28:47.903Z,88.32
2022-09-09T05:31:17.184Z,87.61
2022-09-09T05:33:47.145Z,86.85
2022-09-09T05:36:17.695Z,94.41
2022-09-09T05:38:47.098Z,96.19
2022-09-09T05:41:18.269Z,88.43
2022-09-09T05:43:49.827Z,92.06
2022-09-09T05:46:21.727Z,92.71
2022-09-09T05:48:54.371Z,95.28
2022-09-09T05:51:25.168Z,95.48
2022-09-09T05:53:52.916Z,90.78
2022-09-09T05:56:26.297Z,92.80
2022-09-09T05:58:57.563Z,88.74
2022-09-09T06:01:27.837Z,92.12
2022-09-09T06:03:55.785Z,92.17
2022-09-09T06:06:26.956Z,91.38
2022-09-09T06:08:58.459Z,91.28
2022-09-09T06:11:32.135Z,88.18
2022-09-09T06:14:00.964Z,84.37
2022-09-09T06:16:30.097Z,87.18
2022-09-09T06:18:58.835Z,88.55
2022-09-09T06:21:28.765Z,91.85
2022-09-09T06:24:00.696Z,93.11
2022-09-09T06:26:31.637Z,90.87
2022-09-09T06:28:59.881Z,89.96
2022-09-09T06:31:31.258Z,90.94
2022-09-09T06:34:00.868Z,90.59
2022-09-09T06:36:32.087Z,90.70
2022-09-09T06:39:00.791Z,91.25
2022-09-09T06:41:29.895Z,91.08
2022-09-09T06:43:57.730Z,92.11
2022-09-09T06:46:32.147Z,87.68
2022-09-09T06:49:01.338Z,85.42
2022-09-09T06:51:35.106Z,85.12
2022-09-09T06:54:04.900Z,86.69
2022-09-09T06:56:38.289Z,86.60
2022-09-09T06:59:09.545Z,86.44
2022-09-09T07:01:40.775Z,85.16
2022-09-09T07:04:10.514Z,87.64
2022-09-09T07:06:59.928Z,86.78
2022-09-09T07:09:28.480Z,87.81
2022-09-09T07:11:56.338Z,86.82
2022-09-09T07:14:23.851Z,89.69
2022-09-09T07:16:54.552Z,90.50
2022-09-09T07:19:25.524Z,89.47
2022-09-09T07:21:53.429Z,86.30
2022-09-09T07:24:21.571Z,86.40
2022-09-09T07:26:50.242Z,87.81
2022-09-09T07:29:20.821Z,88.42
2022-09-09T07:31:49.549Z,83.15
2022-09-09T07:34:18.170Z,83.00
2022-09-09T07:36:45.537Z,84.05
2022-09-09T07:39:14.596Z,82.17
2022-09-09T07:41:48.141Z,83.10
2022-09-09T07:44:18.845Z,83.72
2022-09-09T07:46:47.159Z,83.21
2022-09-09T07:49:16.065Z,82.06
2022-09-09T07:51:46.292Z,79.24
2022-09-09T07:54:16.207Z,80.86
2022-09-09T07:56:44.331Z,74.62
2022-09-09T07:59:13.095Z,73.32
2022-09-09T08:01:51.215Z,72.26
2022-09-09T08:04:20.312Z,76.32
2022-09-09T08:06:50.841Z,74.98
2022-09-09T08:09:18.971Z,73.99
2022-09-09T08:11:48.050Z,71.81
2022-09-09T08:14:15.536Z,66.20
2022-09-09T08:16:45.938Z,61.12
2022-09-09T08:19:18.364Z,61.25
2022-09-09T08:21:46.448Z,63.77
2022-09-09T08:24:15.992Z,63.10
2022-09-09T08:26:48.277Z,60.94
2022-09-09T08:29:17.306Z,63.15
2022-09-09T08:31:47.954Z,62.18
2022-09-09T08:34:18.629Z,57.05
2022-09-09T08:36:47.462Z,60.18
2022-09-09T08:39:16.555Z,60.47
2022-09-09T08:41:56.017Z,55.46
2022-09-09T08:44:32.326Z,60.05
2022-09-09T08:47:06.957Z,60.80
2022-09-09T08:50:02.392Z,60.36
2022-09-09T08:52:40.395Z,62.10
2022-09-09T08:55:23.818Z,62.29
2022-09-09T08:57:57.322Z,63.04
2022-09-09T09:00:35.208Z,62.98
2022-09-09T09:03:33.233Z,58.62
2022-09-09T09:06:23.792Z,62.04
2022-09-09T09:09:23.525Z,61.57
2022-09-09T09:11:55.020Z,59.47
2022-09-09T09:14:25.666Z,57.82
2022-09-09T09:17:10.094Z,54.89
2022-09-09T09:19:40.769Z,52.67
2022-09-09T09:22:26.245Z,52.17
2022-09-09T09:25:22.003Z,54.67
2022-09-09T09:27:49.336Z,51.99
2022-09-09T09:30:29.461Z,48.43
2022-09-09T09:33:09.643Z,49.79
2022-09-09T09:35:41.915Z,47.88
2022-09-09T09:41:06.357Z,52.71
2022-09-09T09:43:36.532Z,47.66
2022-09-09T09:46:17.507Z,45.57
2022-09-09T09:48:47.357Z,45.35
2022-09-09T09:51:18.135Z,46.79
2022-09-09T09:53:46.471Z,45.45
2022-09-09T09:56:15.885Z,45.29
2022-09-09T09:58:50.696Z,44.02
2022-09-09T10:01:25.472Z,43.78
2022-09-09T10:04:14.103Z,47.47
2022-09-09T10:06:41.680Z,46.34
2022-09-09T10:09:26.672Z,45.98
2022-09-09T10:12:04.752Z,45.09
2022-09-09T10:14:46.363Z,44.29
2022-09-09T10:17:32.883Z,46.67
2022-09-09T10:20:23.075Z,39.58
2022-09-09T10:23:14.570Z,40.54
2022-09-09T10:25:51.782Z,40.34
2022-09-09T10:28:31.579Z,41.33
2022-09-09T10:31:01.907Z,39.30
2022-09-09T10:33:37.151Z,39.56
2022-09-09T10:36:18.983Z,40.14
2022-09-09T10:38:48.191Z,37.65
2022-09-09T10:41:34.554Z,36.25
2022-09-09T10:44:28.298Z,37.69
2022-09-09T10:47:21.950Z,38.59
2022-09-09T10:50:14.008Z,36.49
2022-09-09T10:53:02.391Z,37.29
2022-09-09T10:55:38.277Z,37.28
2022-09-09T10:58:07.633Z,36.43
2022-09-09T11:00:38.028Z,38.44
2022-09-09T11:03:08.091Z,35.69
2022-09-09T11:05:47.591Z,37.49
2022-09-09T11:08:19.307Z,38.64
2022-09-09T11:10:56.159Z,38.96
2022-09-09T11:13:28.123Z,36.25
2022-09-09T11:16:39.582Z,35.07
2022-09-09T11:19:27.054Z,38.56
2022-09-09T11:21:55.880Z,37.48
2022-09-09T11:24:30.971Z,39.38
2022-09-09T11:27:13.238Z,39.43
2022-09-09T11:29:59.600Z,41.20
2022-09-09T11:32:58.741Z,40.52
2022-09-09T11:35:53.872Z,40.61
2022-09-09T11:38:28.557Z,41.44
2022-09-09T11:40:58.878Z,39.04
2022-09-09T11:43:31.034Z,40.41
2022-09-09T11:46:03.723Z,40.20
2022-09-09T11:48:58.851Z,41.46
2022-09-09T11:51:29.375Z,40.08
2022-09-09T11:53:59.835Z,40.21
2022-09-09T11:56:44.993Z,41.33
2022-09-09T11:59:30.454Z,42.86
2022-09-09T12:01:59.818Z,42.26
2022-09-09T12:04:38.645Z,41.88
2022-09-09T12:07:23.132Z,41.91
2022-09-09T12:09:57.638Z,42.87
2022-09-09T12:12:33.426Z,42.34
2022-09-09T12:15:04.658Z,41.02
2022-09-09T12:17:41.996Z,39.24
2022-09-09T12:20:18.862Z,39.89
2022-09-09T12:23:06.138Z,37.92
2022-09-09T12:25:47.478Z,39.10
2022-09-09T12:28:20.379Z,37.24
2022-09-09T12:30:57.270Z,37.86
2022-09-09T12:33:24.902Z,38.83
2022-09-09T12:35:56.858Z,38.74
2022-09-09T12:38:31.729Z,39.26
2022-09-09T12:40:59.965Z,39.29
2022-09-09T12:43:28.490Z,36.25
2022-09-09T12:46:02.635Z,34.19
2022-09-09T12:48:32.653Z,34.49
2022-09-09T12:51:01.390Z,34.76
2022-09-09T12:53:36.572Z,38.33
2022-09-09T12:56:09.291Z,38.84
2022-09-09T12:58:38.055Z,38.71
2022-09-09T13:01:06.636Z,36.82
2022-09-09T13:03:35.040Z,35.54
2022-09-09T13:06:15.268Z,36.94
2022-09-09T13:08:43.163Z,37.39
2022-09-09T13:11:15.246Z,37.52
2022-09-09T13:13:44.484Z,37.24
2022-09-09T13:16:27.558Z,35.26
2022-09-09T13:18:56.922Z,36.16
2022-09-09T13:21:38.729Z,36.48
2022-09-09T13:24:32.184Z,37.88
2022-09-09T13:27:21.713Z,38.23
2022-09-09T13:29:56.762Z,36.49
2022-09-09T13:32:27.792Z,36.57
2022-09-09T13:35:00.709Z,37.22
2022-09-09T13:37:39.882Z,37.31
2022-09-09T13:40:18.707Z,38.30
2022-09-09T13:42:46.212Z,37.89
2022-09-09T13:45:22.737Z,38.10
2022-09-09T13:47:53.681Z,36.04
2022-09-09T13:50:29.824Z,34.87
2022-09-09T13:53:01.640Z,34.23
2022-09-09T13:55:30.067Z,36.34
2022-09-09T13:58:02.526Z,39.47
2022-09-09T14:00:32.184Z,37.26
2022-09-09T14:03:03.073Z,36.78
2022-09-09T14:05:34.390Z,34.41
2022-09-09T14:08:04.796Z,35.84
2022-09-09T14:10:32.272Z,34.90
2022-09-09T14:12:59.615Z,34.15
2022-09-09T14:15:28.124Z,35.60
2022-09-09T14:17:55.947Z,34.14
2022-09-09T14:20:23.602Z,36.10
2022-09-09T14:22:51.351Z,35.58
2022-09-09T14:25:18.736Z,34.41
2022-09-09T14:27:46.937Z,36.77
2022-09-09T14:30:14.798Z,36.39
2022-09-09T14:32:42.227Z,34.90
2022-09-09T14:35:09.666Z,34.95
2022-09-09T14:37:37.387Z,36.28
2022-09-09T14:40:05.220Z,33.12
2022-09-09T14:42:32.683Z,35.29
2022-09-09T14:45:00.311Z,33.43
2022-09-09T14:47:27.908Z,35.77
2022-09-09T14:49:55.343Z,33.39
2022-09-09T14:52:26.322Z,33.51
2022-09-09T14:54:53.758Z,35.03
2022-09-09T14:57:21.203Z,35.38
2022-09-09T14:59:51.679Z,37.08
2022-09-09T15:02:19.061Z,35.30
2022-09-09T15:04:46.913Z,33.87
2022-09-09T15:07:17.749Z,36.37
2022-09-09T15:09:45.618Z,35.00
2022-09-09T15:12:13.366Z,36.84
2022-09-09T15:14:41.015Z,34.90
2022-09-09T15:17:08.354Z,36.41
2022-09-09T15:19:35.982Z,35.90
2022-09-09T15:22:06.268Z,34.61
2022-09-09T15:24:33.979Z,34.11
2022-09-09T15:27:02.193Z,32.44
2022-09-09T15:29:29.829Z,33.79
2022-09-09T15:31:57.283Z,31.92
2022-09-09T15:34:24.821Z,32.71
2022-09-09T15:36:52.581Z,32.04
2022-09-09T15:39:19.961Z,33.17
2022-09-09T15:41:48.321Z,32.27
2022-09-09T15:44:16.794Z,30.95
2022-09-09T15:46:50.191Z,30.99
2022-09-09T15:49:23.787Z,30.97
2022-09-09T15:51:59.904Z,31.58
2022-09-09T15:54:27.589Z,31.35
2022-09-09T15:56:59.886Z,34.94
2022-09-09T15:59:29.023Z,34.41
2022-09-09T16:01:57.214Z,35.00
2022-09-09T16:04:25.546Z,32.80
2022-09-09T16:06:59.429Z,33.67
2022-09-09T16:09:28.429Z,33.71
2022-09-09T16:12:01.922Z,34.78
2022-09-09T16:14:30.012Z,35.27
2022-09-09T16:17:00.181Z,35.80
2022-09-09T16:19:27.563Z,36.53
2022-09-09T16:21:55.364Z,38.22
2022-09-09T16:24:23.323Z,39.52
2022-09-09T16:26:52.626Z,39.84
2022-09-09T16:29:20.888Z,40.69
2022-09-09T16:31:49.284Z,39.33
2022-09-09T16:34:18.424Z,40.44
2022-09-09T16:36:47.275Z,40.08
2022-09-09T16:39:17.648Z,40.80
2022-09-09T16:41:46.215Z,39.58
2022-09-09T16:44:16.147Z,41.15
2022-09-09T16:46:44.644Z,41.83
2022-09-09T16:49:14.166Z,41.63
2022-09-09T16:51:44.735Z,43.67
2022-09-09T16:54:13.041Z,44.79
2022-09-09T16:56:42.642Z,45.22
2022-09-09T16:59:15.814Z,45.57
2022-09-09T17:01:44.759Z,46.18
2022-09-09T17:04:16.407Z,46.62
2022-09-09T17:06:47.342Z,46.10
2022-09-09T17:09:15.130Z,45.85
2022-09-09T17:11:42.712Z,46.44
2022-09-09T17:14:14.413Z,46.81
2022-09-09T17:16:42.197Z,47.57
2022-09-09T17:19:10.769Z,48.14
2022-09-09T17:21:54.508Z,48.32
2022-09-09T17:24:27.523Z,46.75
2022-09-09T17:26:55.413Z,45.97
2022-09-09T17:29:23.257Z,44.66
2022-09-09T17:31:51.909Z,47.01
2022-09-09T17:34:22.917Z,48.34
2022-09-09T17:36:51.077Z,49.88
2022-09-09T17:39:18.658Z,49.72
2022-09-09T17:41:46.533Z,49.55
2022-09-09T17:44:14.237Z,51.55
2022-09-09T17:46:42.928Z,53.68
2022-09-09T17:49:15.438Z,51.70
2022-09-09T17:51:43.756Z,50.82
2022-09-09T17:54:17.309Z,51.49
2022-09-09T17:56:48.013Z,52.47
2022-09-09T17:59:18.724Z,50.48
2022-09-09T18:01:48.190Z,50.50
2022-09-09T18:04:16.774Z,50.83
2022-09-09T18:06:46.228Z,52.92
2022-09-09T18:09:17.489Z,56.18
2022-09-09T18:11:47.753Z,57.83
2022-09-09T18:14:18.126Z,57.25
2022-09-09T18:16:46.061Z,56.96
2022-09-09T18:19:15.114Z,56.51
2022-09-09T18:21:43.878Z,56.95
2022-09-09T18:24:12.672Z,55.88
2022-09-09T18:26:41.197Z,57.91
2022-09-09T18:29:11.316Z,58.36
2022-09-09T18:31:39.633Z,58.22
2022-09-09T18:34:10.039Z,58.98
2022-09-09T18:36:46.934Z,59.13
2022-09-09T18:39:16.612Z,59.13
2022-09-09T18:41:50.502Z,58.31
2022-09-09T18:44:21.272Z,58.37
2022-09-09T18:46:49.645Z,58.58
2022-09-09T18:49:17.412Z,58.37
2022-09-09T18:51:46.658Z,58.54
2022-09-09T18:54:23.330Z,59.54
2022-09-09T18:56:52.935Z,59.44
2022-09-09T18:59:22.231Z,60.50
2022-09-09T19:01:51.028Z,60.05
2022-09-09T19:04:19.733Z,60.00
2022-09-09T19:06:48.827Z,59.62
2022-09-09T19:09:18.730Z,59.51
2022-09-09T19:11:46.911Z,60.40
2022-09-09T19:14:16.036Z,59.96
2022-09-09T19:16:45.450Z,60.15
2022-09-09T19:19:19.141Z,60.63
2022-09-09T19:21:47.376Z,61.23
2022-09-09T19:24:21.619Z,61.25
2022-09-09T19:26:52.422Z,61.41
2022-09-09T19:29:24.952Z,61.78
2022-09-09T19:32:36.463Z,61.96
2022-09-09T19:34:44.146Z,62.22
2022-09-09T19:37:16.317Z,62.42
2022-09-09T19:39:47.412Z,62.40
2022-09-09T19:42:15.106Z,62.91
2022-09-09T19:44:42.828Z,63.55
2022-09-09T19:47:10.762Z,63.80
2022-09-09T19:49:38.625Z,62.94
2022-09-09T19:52:06.093Z,63.16
2022-09-09T19:54:33.753Z,63.40
2022-09-09T19:57:01.383Z,65.43
2022-09-09T19:59:29.084Z,62.16
2022-09-09T20:01:56.973Z,63.16
2022-09-09T20:04:26.611Z,62.07
2022-09-09T20:06:54.257Z,58.72
2022-09-09T20:09:22.095Z,56.96
2022-09-09T20:11:49.989Z,59.62
2022-09-09T20:14:18.290Z,58.34
2022-09-09T20:16:46.592Z,59.91
2022-09-09T20:19:16.534Z,59.89
2022-09-09T20:21:47.990Z,61.88
2022-09-09T20:24:18.950Z,62.75
2022-09-09T20:26:48.404Z,63.45
2022-09-09T20:29:18.776Z,64.01
2022-09-09T20:31:46.575Z,64.45
2022-09-09T20:34:16.667Z,65.22
2022-09-09T20:36:44.855Z,65.69
2022-09-09T20:39:15.151Z,68.21
2022-09-09T20:41:45.373Z,69.77
2022-09-09T20:44:24.260Z,65.46
2022-09-09T20:46:55.520Z,64.25
2022-09-09T20:49:24.343Z,67.18
2022-09-09T20:51:53.201Z,66.00
2022-09-09T20:54:23.495Z,65.77
2022-09-09T20:56:52.713Z,70.00
2022-09-09T20:59:25.263Z,69.64
2022-09-09T21:01:53.863Z,71.13
2022-09-09T21:04:21.987Z,69.45
2022-09-09T21:06:51.092Z,70.96
2022-09-09T21:09:19.445Z,75.75
2022-09-09T21:11:47.238Z,76.66
2022-09-09T21:14:14.873Z,74.65
2022-09-09T21:16:42.575Z,73.94
2022-09-09T21:19:09.964Z,72.24
2022-09-09T21:21:37.434Z,71.95
2022-09-09T21:24:05.639Z,70.38
2022-09-09T21:26:33.169Z,73.02
2022-09-09T21:29:00.507Z,68.86
2022-09-09T21:31:28.658Z,67.46
2022-09-09T21:33:57.551Z,66.62
2022-09-09T21:36:27.230Z,65.99
2022-09-09T21:38:55.116Z,64.87
2022-09-09T21:41:22.493Z,64.08
2022-09-09T21:43:52.439Z,67.24
2022-09-09T21:46:20.854Z,65.70
2022-09-09T21:48:48.214Z,64.31
2022-09-09T21:51:16.681Z,63.91
2022-09-09T21:53:44.672Z,64.25
2022-09-09T21:56:14.636Z,66.88
2022-09-09T21:58:42.664Z,70.77
2022-09-09T22:01:12.614Z,74.72
2022-09-09T22:03:42.473Z,73.49
2022-09-09T22:06:12.519Z,76.38
2022-09-09T22:08:40.337Z,75.74
2022-09-09T22:11:10.042Z,78.33
2022-09-09T22:13:38.442Z,76.75
2022-09-09T22:16:07.670Z,72.25
2022-09-09T22:18:35.789Z,78.39
2022-09-09T22:21:15.150Z,82.10
2022-09-09T22:23:42.815Z,85.01
2022-09-09T22:26:10.347Z,84.49
2022-09-09T22:28:38.711Z,83.01
2022-09-09T22:31:06.649Z,84.53
2022-09-09T22:33:34.934Z,86.90
2022-09-09T22:36:02.776Z,86.41
2022-09-09T22:38:31.065Z,85.71
2022-09-09T22:40:58.449Z,85.90
2022-09-09T22:43:25.781Z,86.06
2022-09-09T22:45:53.427Z,86.29
2022-09-09T22:48:20.864Z,83.71
2022-09-09T22:50:48.262Z,85.51
2022-09-09T22:53:17.383Z,85.92
2022-09-09T22:55:58.484Z,88.83
2022-09-09T22:58:30.017Z,87.08
2022-09-09T23:00:58.819Z,88.43
2022-09-09T23:03:30.699Z,86.16
2022-09-09T23:06:00.756Z,89.38
2022-09-09T23:08:33.494Z,89.16
2022-09-09T23:11:03.958Z,87.32
2022-09-09T23:13:33.129Z,88.62
2022-09-09T23:16:03.885Z,88.96
2022-09-09T23:18:33.553Z,88.45
2022-09-09T23:21:01.069Z,88.44
2022-09-09T23:23:29.054Z,90.42
2022-09-09T23:25:56.691Z,90.09
2022-09-09T23:28:24.045Z,90.86
2022-09-09T23:30:51.442Z,89.06
2022-09-09T23:33:19.113Z,89.42
2022-09-09T23:35:47.018Z,90.21
2022-09-09T23:38:14.870Z,90.27
2022-09-09T23:40:45.162Z,90.28
2022-09-09T23:43:12.559Z,90.47
2022-09-09T23:45:39.977Z,90.60
2022-09-09T23:48:07.647Z,90.28
2022-09-09T23:50:34.962Z,89.91
2022-09-09T23:53:03.234Z,89.86
2022-09-09T23:55:31.045Z,91.02
2022-09-09T23:57:58.409Z,95.96
